Bonduel, Wisconsin
Current Conditions -  °F | °C
As of 12:55 AM on Monday 24 Nov 2014 (Local Time) from KEZS Reporting Station
Drizzle Drizzle  
Wind Chill: 41°   Ceiling: 300
Heat Index: 41°   Visibility: 0.25mi
Dew Point: 40°   Wind: 0mph
Humidity: 95%   Direction: NA
Pressure: 29.09"   Gusts: NA
Location:  44.74°N, 88.44°W
Report Text: KEZS 240655Z AUTO 00000KT 1/4SM DZ OVC003 05/04 A2909 RMK AO2 P0002 T00500042
Loading
Personal Weather Stations






























Interactive Weather Map New forecast layout! Learn more

10-Day Weather Forecast

Advertisements
Track Severe Weather on mobile